createdAt,value
2023-03-11T00:00:16.993Z,13.10
2023-03-11T00:02:44.912Z,11.83
2023-03-11T00:05:17.332Z,12.10
2023-03-11T00:07:45.348Z,11.20
2023-03-11T00:10:15.946Z,12.37
2023-03-11T00:12:45.192Z,11.47
2023-03-11T00:15:13.559Z,12.23
2023-03-11T00:17:41.740Z,13.23
2023-03-11T00:20:17.310Z,12.60
2023-03-11T00:22:45.058Z,13.63
2023-03-11T00:25:12.954Z,12.77
2023-03-11T00:27:40.718Z,12.50
2023-03-11T00:30:12.317Z,11.93
2023-03-11T00:32:40.181Z,12.07
2023-03-11T00:35:09.465Z,12.67
2023-03-11T00:37:37.207Z,12.33
2023-03-11T00:40:08.582Z,13.00
2023-03-11T00:42:36.321Z,13.97
2023-03-11T00:45:04.190Z,13.17
2023-03-11T00:47:33.246Z,13.27
2023-03-11T00:50:01.155Z,14.00
2023-03-11T00:52:29.136Z,13.10
2023-03-11T00:54:56.924Z,12.93
2023-03-11T00:57:24.631Z,12.53
2023-03-11T00:59:53.345Z,12.00
2023-03-11T01:02:21.210Z,12.17
2023-03-11T01:04:54.758Z,11.37
2023-03-11T01:07:22.552Z,10.60
2023-03-11T01:09:50.304Z,11.03
2023-03-11T01:12:18.118Z,11.13
2023-03-11T01:14:45.856Z,10.70
2023-03-11T01:17:13.601Z,11.47
2023-03-11T01:19:41.520Z,11.40
2023-03-11T01:22:10.690Z,12.10
2023-03-11T01:24:38.561Z,11.93
2023-03-11T01:27:06.413Z,12.33
2023-03-11T01:29:34.169Z,12.40
2023-03-11T01:32:01.921Z,13.33
2023-03-11T01:34:29.633Z,12.73
2023-03-11T01:36:57.342Z,13.73
2023-03-11T01:39:26.491Z,14.07
2023-03-11T01:41:56.104Z,14.67
2023-03-11T01:44:24.093Z,15.50
2023-03-11T01:47:32.649Z,15.30
2023-03-11T01:50:00.642Z,14.50
2023-03-11T01:52:29.219Z,14.93
2023-03-11T01:54:58.349Z,13.87
2023-03-11T01:57:26.134Z,13.03
2023-03-11T01:59:58.698Z,12.00
2023-03-11T02:02:31.882Z,11.60
2023-03-11T02:05:02.180Z,10.63
2023-03-11T02:07:29.950Z,10.10
2023-03-11T02:09:59.024Z,8.53
2023-03-11T02:12:29.829Z,6.73
2023-03-11T02:14:57.663Z,5.63
2023-03-11T02:17:25.847Z,5.90
2023-03-11T02:20:06.296Z,5.50
2023-03-11T02:22:35.390Z,4.70
2023-03-11T02:25:11.265Z,4.20
2023-03-11T02:27:45.092Z,3.87
2023-03-11T02:30:14.996Z,3.03
2023-03-11T02:32:47.174Z,2.73
2023-03-11T02:35:15.912Z,2.47
2023-03-11T02:37:47.849Z,1.90
2023-03-11T02:40:52.921Z,2.23
2023-03-11T02:43:25.819Z,1.70
2023-03-11T02:45:54.083Z,1.70
2023-03-11T02:48:23.975Z,1.70
2023-03-11T02:50:52.231Z,1.90
2023-03-11T02:53:20.914Z,1.73
2023-03-11T02:55:48.663Z,2.13
2023-03-11T02:58:16.425Z,1.90
2023-03-11T03:00:45.545Z,2.23
2023-03-11T03:03:13.296Z,2.23
2023-03-11T03:05:41.053Z,2.63
2023-03-11T03:08:08.989Z,2.43
2023-03-11T03:10:36.861Z,2.40
2023-03-11T03:13:05.251Z,2.80
2023-03-11T03:15:33.097Z,3.40
2023-03-11T03:18:02.151Z,3.00
2023-03-11T03:20:29.902Z,3.00
2023-03-11T03:22:57.760Z,3.50
2023-03-11T03:25:25.578Z,4.13
2023-03-11T03:27:53.297Z,4.40
2023-03-11T03:30:22.451Z,4.10
2023-03-11T03:32:50.226Z,4.70
2023-03-11T03:35:19.391Z,4.37
2023-03-11T03:37:47.186Z,4.77
2023-03-11T03:40:15.444Z,4.80
2023-03-11T03:42:43.170Z,5.43
2023-03-11T03:45:12.066Z,5.47
2023-03-11T03:47:39.972Z,5.20
2023-03-11T03:50:09.993Z,5.33
2023-03-11T03:52:39.611Z,4.90
2023-03-11T03:55:08.027Z,5.53
2023-03-11T03:57:35.807Z,5.60
2023-03-11T04:00:04.357Z,5.70
2023-03-11T04:02:32.636Z,6.10
2023-03-11T04:05:00.402Z,6.00
2023-03-11T04:07:28.129Z,6.53
2023-03-11T04:09:57.195Z,6.13
2023-03-11T04:12:24.944Z,6.50
2023-03-11T04:14:52.773Z,5.77
2023-03-11T04:17:20.530Z,5.90
2023-03-11T04:19:48.260Z,5.60
2023-03-11T04:22:16.071Z,5.53
2023-03-11T04:24:43.790Z,5.60
2023-03-11T04:27:12.883Z,5.47
2023-03-11T04:29:40.606Z,5.50
2023-03-11T04:32:08.997Z,5.00
2023-03-11T04:34:36.814Z,5.50
2023-03-11T04:37:04.591Z,4.50
2023-03-11T04:39:32.335Z,4.50
2023-03-11T04:42:01.680Z,4.13
2023-03-11T04:44:32.665Z,4.13
2023-03-11T04:47:00.415Z,3.90
2023-03-11T04:49:28.164Z,3.93
2023-03-11T04:51:56.010Z,3.90
2023-03-11T04:54:23.731Z,3.40
2023-03-11T04:56:51.460Z,3.67
2023-03-11T04:59:19.222Z,3.43
2023-03-11T05:01:48.390Z,3.87
2023-03-11T05:04:16.221Z,3.07
2023-03-11T05:06:44.106Z,3.50
2023-03-11T05:09:11.796Z,3.23
2023-03-11T05:11:39.533Z,3.20
2023-03-11T05:14:07.279Z,3.40
2023-03-11T05:16:35.326Z,4.60
2023-03-11T05:19:24.719Z,3.97
2023-03-11T05:21:52.561Z,3.30
2023-03-11T05:24:20.257Z,3.60
2023-03-11T05:26:48.628Z,4.43
2023-03-11T05:29:16.439Z,4.43
2023-03-11T05:31:44.253Z,3.70
2023-03-11T05:34:13.303Z,4.70
2023-03-11T05:36:41.109Z,4.67
2023-03-11T05:39:09.203Z,3.50
2023-03-11T05:41:36.929Z,3.60
2023-03-11T05:44:05.354Z,3.70
2023-03-11T05:46:33.314Z,3.57
2023-03-11T05:49:01.105Z,4.53
2023-03-11T05:51:30.239Z,4.37
2023-03-11T05:53:58.718Z,4.20
2023-03-11T05:56:26.539Z,3.90
2023-03-11T05:58:54.236Z,3.43
2023-03-11T06:01:21.981Z,4.03
2023-03-11T06:03:49.858Z,4.17
2023-03-11T06:06:17.800Z,4.00
2023-03-11T06:08:49.861Z,4.20
2023-03-11T06:11:18.151Z,4.00
2023-03-11T06:13:45.908Z,4.30
2023-03-11T06:16:14.240Z,4.43
2023-03-11T06:18:42.020Z,4.10
2023-03-11T06:21:16.433Z,17.37
2023-03-11T06:23:44.202Z,4.70
2023-03-11T06:26:16.054Z,4.97
2023-03-11T06:28:44.000Z,5.70
2023-03-11T06:31:15.353Z,4.60
2023-03-11T06:33:43.119Z,5.20
2023-03-11T06:36:13.779Z,5.10
2023-03-11T06:38:41.887Z,5.27
2023-03-11T06:41:09.648Z,6.00
2023-03-11T06:43:38.846Z,5.63
2023-03-11T06:46:10.746Z,5.97
2023-03-11T06:48:38.532Z,5.80
2023-03-11T06:51:06.692Z,6.40
2023-03-11T06:53:34.692Z,6.50
2023-03-11T06:56:04.556Z,6.87
2023-03-11T06:58:33.232Z,6.83
2023-03-11T07:01:08.200Z,6.73
2023-03-11T07:03:36.113Z,6.33
2023-03-11T07:06:06.255Z,6.40
2023-03-11T07:08:34.476Z,6.20
2023-03-11T07:11:04.696Z,6.13
2023-03-11T07:13:33.337Z,6.70
2023-03-11T07:16:02.490Z,6.03
2023-03-11T07:18:31.610Z,6.03
2023-03-11T07:20:59.634Z,6.20
2023-03-11T07:23:27.345Z,6.13
2023-03-11T07:25:55.600Z,6.20
2023-03-11T07:28:23.422Z,5.83
2023-03-11T07:30:51.510Z,6.20
2023-03-11T07:33:19.763Z,5.97
2023-03-11T07:35:49.415Z,5.47
2023-03-11T07:38:18.026Z,6.13
2023-03-11T07:40:46.081Z,7.60
2023-03-11T07:43:13.824Z,5.67
2023-03-11T07:45:41.831Z,5.43
2023-03-11T07:48:09.648Z,5.27
2023-03-11T07:50:37.494Z,4.90
2023-03-11T07:53:06.547Z,4.47
2023-03-11T07:55:34.841Z,5.17
2023-03-11T07:58:02.796Z,4.83
2023-03-11T08:00:30.759Z,5.50
2023-03-11T08:02:58.495Z,5.73
2023-03-11T08:05:26.302Z,5.47
2023-03-11T08:07:54.060Z,5.93
2023-03-11T08:10:23.192Z,5.20
2023-03-11T08:12:52.799Z,5.57
2023-03-11T08:15:20.543Z,5.97
2023-03-11T08:17:48.304Z,4.87
2023-03-11T08:20:16.191Z,5.50
2023-03-11T08:22:57.348Z,5.40
2023-03-11T08:25:27.435Z,5.00
2023-03-11T08:27:55.170Z,5.77
2023-03-11T08:30:23.286Z,5.87
2023-03-11T08:32:51.189Z,5.13
2023-03-11T08:35:19.405Z,5.57
2023-03-11T08:37:47.433Z,6.53
2023-03-11T08:40:15.259Z,5.80
2023-03-11T08:42:44.354Z,5.37
2023-03-11T08:45:12.707Z,5.80
2023-03-11T08:47:41.130Z,5.93
2023-03-11T08:50:14.500Z,6.30
2023-03-11T08:52:42.490Z,6.10
2023-03-11T08:55:13.340Z,6.00
2023-03-11T08:57:42.309Z,5.70
2023-03-11T09:00:13.655Z,6.10
2023-03-11T09:02:41.749Z,6.50
2023-03-11T09:05:10.591Z,9.30
2023-03-11T09:07:38.459Z,9.67
2023-03-11T09:10:07.270Z,8.63
2023-03-11T09:12:35.024Z,6.33
2023-03-11T09:15:02.727Z,4.97
2023-03-11T09:17:32.005Z,5.90
2023-03-11T09:19:59.759Z,6.13
2023-03-11T09:22:27.575Z,5.43
2023-03-11T09:24:55.361Z,4.77
2023-03-11T09:27:23.212Z,6.30
2023-03-11T09:29:50.938Z,5.57
2023-03-11T09:32:18.708Z,5.90
2023-03-11T09:34:47.765Z,5.87
2023-03-11T09:37:15.505Z,6.57
2023-03-11T09:39:43.224Z,5.40
2023-03-11T09:42:19.793Z,5.83
2023-03-11T09:44:55.321Z,5.83
2023-03-11T09:47:34.436Z,5.97
2023-03-11T09:50:25.490Z,7.00
2023-03-11T09:53:02.401Z,6.70
2023-03-11T09:55:43.492Z,6.43
2023-03-11T09:58:15.639Z,6.80
2023-03-11T10:00:44.359Z,6.73
2023-03-11T10:03:32.718Z,6.80
2023-03-11T10:06:09.191Z,8.23
2023-03-11T10:08:44.244Z,7.00
2023-03-11T10:11:23.811Z,6.70
2023-03-11T10:14:02.578Z,6.97
2023-03-11T10:16:38.566Z,6.87
2023-03-11T10:19:11.802Z,6.50
2023-03-11T10:21:51.895Z,6.23
2023-03-11T10:24:37.001Z,6.97
2023-03-11T10:27:12.532Z,5.87
2023-03-11T10:29:49.135Z,6.60
2023-03-11T10:32:21.669Z,6.00
2023-03-11T10:34:55.070Z,5.87
2023-03-11T10:37:33.258Z,6.10
2023-03-11T10:40:16.370Z,7.97
2023-03-11T10:42:46.758Z,7.87
2023-03-11T10:45:15.826Z,7.73
2023-03-11T10:47:44.052Z,8.33
2023-03-11T10:50:16.966Z,7.73
2023-03-11T10:53:06.206Z,8.20
2023-03-11T10:55:34.154Z,8.40
2023-03-11T10:58:08.295Z,9.73
2023-03-11T11:00:36.154Z,9.20
2023-03-11T11:03:04.446Z,9.70
2023-03-11T11:05:33.997Z,8.83
2023-03-11T11:08:09.264Z,9.40
2023-03-11T11:10:38.597Z,9.37
2023-03-11T11:13:19.712Z,10.10
2023-03-11T11:15:59.989Z,9.43
2023-03-11T11:18:30.433Z,10.63
2023-03-11T11:21:02.365Z,9.27
2023-03-11T11:23:37.350Z,10.10
2023-03-11T11:26:08.993Z,9.97
2023-03-11T11:28:37.489Z,8.53
2023-03-11T11:31:07.841Z,9.60
2023-03-11T11:33:41.404Z,8.00
2023-03-11T11:36:16.641Z,8.20
2023-03-11T11:38:45.727Z,7.77
2023-03-11T11:41:17.570Z,7.17
2023-03-11T11:43:50.325Z,7.87
2023-03-11T11:46:26.940Z,10.73
2023-03-11T11:49:06.698Z,8.30
2023-03-11T11:51:37.652Z,8.37
2023-03-11T11:54:17.379Z,8.27
2023-03-11T11:56:45.510Z,8.47
2023-03-11T11:59:18.781Z,7.80
2023-03-11T12:01:58.005Z,8.57
2023-03-11T12:04:54.547Z,7.00
2023-03-11T12:07:39.470Z,6.70
2023-03-11T12:10:24.053Z,7.03
2023-03-11T12:13:23.663Z,7.70
2023-03-11T12:15:58.022Z,7.27
2023-03-11T12:18:30.695Z,7.20
2023-03-11T12:20:58.893Z,6.80
2023-03-11T12:23:38.696Z,11.17
2023-03-11T12:26:16.721Z,12.47
2023-03-11T12:28:49.856Z,8.70
2023-03-11T12:31:17.951Z,8.70
2023-03-11T12:33:47.968Z,7.73
2023-03-11T12:36:29.728Z,8.53
2023-03-11T12:38:58.428Z,8.80
2023-03-11T12:41:33.643Z,8.10
2023-03-11T12:44:06.580Z,7.53
2023-03-11T12:47:02.499Z,25.43
2023-03-11T12:49:31.741Z,8.50
2023-03-11T12:52:04.934Z,6.57
2023-03-11T12:54:34.373Z,6.73
2023-03-11T12:57:07.233Z,6.80
2023-03-11T13:00:17.452Z,6.50
2023-03-11T13:03:22.811Z,7.50
2023-03-11T13:05:58.313Z,8.13
2023-03-11T13:08:28.218Z,7.60
2023-03-11T13:10:57.091Z,6.87
2023-03-11T13:13:36.845Z,8.10
2023-03-11T13:16:38.767Z,6.87
2023-03-11T13:19:51.424Z,7.27
2023-03-11T13:22:43.127Z,8.10
2023-03-11T13:25:31.472Z,6.37
2023-03-11T13:28:08.101Z,7.10
2023-03-11T13:30:43.773Z,7.33
2023-03-11T13:33:25.668Z,6.57
2023-03-11T13:36:04.197Z,6.20
2023-03-11T13:39:02.981Z,6.53
2023-03-11T13:41:33.591Z,6.20
2023-03-11T13:44:06.469Z,6.80
2023-03-11T13:46:39.490Z,6.43
2023-03-11T13:49:12.961Z,5.47
2023-03-11T13:51:44.344Z,5.73
2023-03-11T13:54:33.589Z,6.47
2023-03-11T13:57:03.549Z,6.60
2023-03-11T13:59:32.877Z,9.67
2023-03-11T14:02:05.732Z,6.80
2023-03-11T14:04:36.350Z,7.27
2023-03-11T14:07:14.264Z,7.27
2023-03-11T14:09:42.071Z,6.80
2023-03-11T14:12:11.833Z,6.23
2023-03-11T14:14:49.081Z,5.73
2023-03-11T14:17:20.317Z,6.60
2023-03-11T14:20:08.075Z,6.97
2023-03-11T14:22:41.417Z,6.07
2023-03-11T14:25:20.685Z,8.53
2023-03-11T14:27:55.310Z,7.10
2023-03-11T14:30:26.612Z,6.00
2023-03-11T14:33:01.446Z,7.47
2023-03-11T14:35:30.514Z,7.93
2023-03-11T14:37:58.778Z,5.90
2023-03-11T14:40:30.247Z,6.47
2023-03-11T14:43:01.378Z,6.20
2023-03-11T14:45:31.846Z,6.03
2023-03-11T14:48:06.132Z,5.60
2023-03-11T14:50:36.069Z,6.50
2023-03-11T14:53:07.732Z,5.30
2023-03-11T14:55:40.408Z,6.20
2023-03-11T14:58:14.535Z,5.30
2023-03-11T15:00:47.459Z,5.07
2023-03-11T15:03:23.417Z,4.57
2023-03-11T15:05:54.489Z,4.30
2023-03-11T15:08:24.315Z,4.20
2023-03-11T15:11:18.928Z,4.30
2023-03-11T15:13:50.664Z,4.63
2023-03-11T15:16:32.581Z,4.53
2023-03-11T15:19:03.577Z,4.77
2023-03-11T15:21:31.441Z,4.33
2023-03-11T15:24:05.255Z,5.07
2023-03-11T15:26:35.584Z,4.40
2023-03-11T15:29:07.074Z,4.90
2023-03-11T15:31:37.333Z,5.00
2023-03-11T15:34:25.155Z,5.20
2023-03-11T15:37:00.644Z,4.97
2023-03-11T15:39:43.827Z,4.70
2023-03-11T15:42:19.325Z,5.80
2023-03-11T15:45:04.052Z,4.50
2023-03-11T15:47:32.305Z,4.63
2023-03-11T15:50:04.111Z,4.70
2023-03-11T15:52:31.876Z,4.23
2023-03-11T15:54:59.608Z,5.20
2023-03-11T15:57:29.193Z,4.40
2023-03-11T15:59:59.776Z,3.80
2023-03-11T16:02:29.535Z,3.63
2023-03-11T16:04:58.344Z,3.50
2023-03-11T16:07:39.224Z,3.10
2023-03-11T16:10:08.478Z,3.07
2023-03-11T16:12:36.211Z,3.00
2023-03-11T16:15:04.213Z,3.80
2023-03-11T16:17:46.833Z,2.97
2023-03-11T16:20:16.920Z,3.23
2023-03-11T16:22:46.509Z,3.50
2023-03-11T16:25:21.596Z,3.07
2023-03-11T16:27:51.144Z,2.90
2023-03-11T16:30:19.571Z,3.83
2023-03-11T16:32:47.535Z,4.40
2023-03-11T16:35:15.430Z,4.53
2023-03-11T16:37:43.622Z,4.07
2023-03-11T16:40:16.216Z,8.07
2023-03-11T16:42:44.672Z,6.53
2023-03-11T16:45:13.582Z,26.90
2023-03-11T16:47:41.396Z,21.50
2023-03-11T16:50:11.424Z,16.53
2023-03-11T16:52:39.272Z,9.13
2023-03-11T16:55:07.819Z,7.40
2023-03-11T16:57:37.830Z,4.10
2023-03-11T17:00:07.172Z,3.53
2023-03-11T17:02:35.010Z,3.07
2023-03-11T17:05:03.234Z,2.90
2023-03-11T17:07:31.168Z,3.80
2023-03-11T17:09:59.640Z,3.70
2023-03-11T17:12:28.763Z,3.83
2023-03-11T17:14:57.849Z,4.23
2023-03-11T17:17:25.689Z,3.53
2023-03-11T17:19:53.996Z,3.43
2023-03-11T17:22:21.766Z,3.23
2023-03-11T17:24:49.530Z,3.37
2023-03-11T17:27:17.388Z,3.80
2023-03-11T17:29:45.249Z,3.73
2023-03-11T17:32:17.567Z,4.00
2023-03-11T17:34:45.957Z,4.03
2023-03-11T17:37:14.212Z,4.00
2023-03-11T17:39:42.164Z,3.67
2023-03-11T17:42:09.921Z,3.93
2023-03-11T17:44:50.511Z,4.10
2023-03-11T17:47:21.417Z,4.23
2023-03-11T17:49:49.475Z,4.10
2023-03-11T17:52:17.333Z,4.00
2023-03-11T17:54:45.268Z,4.60
2023-03-11T17:57:13.110Z,4.30
2023-03-11T17:59:40.967Z,4.07
2023-03-11T18:02:09.214Z,4.40
2023-03-11T18:04:39.181Z,3.67
2023-03-11T18:07:08.357Z,4.07
2023-03-11T18:09:36.130Z,4.10
2023-03-11T18:12:04.077Z,3.80
2023-03-11T18:14:31.837Z,3.63
2023-03-11T18:16:59.658Z,3.70
2023-03-11T18:19:27.513Z,3.50
2023-03-11T18:21:56.599Z,4.03
2023-03-11T18:24:24.386Z,3.80
2023-03-11T18:26:52.216Z,4.47
2023-03-11T18:29:20.043Z,4.40
2023-03-11T18:31:47.946Z,4.37
2023-03-11T18:34:15.771Z,4.47
2023-03-11T18:36:43.863Z,4.27
2023-03-11T18:39:13.837Z,3.40
2023-03-11T18:41:42.777Z,3.77
2023-03-11T18:44:11.025Z,3.30
2023-03-11T18:46:38.796Z,3.53
2023-03-11T18:49:06.530Z,3.00
2023-03-11T18:51:34.295Z,2.77
2023-03-11T18:54:02.636Z,3.13
2023-03-11T18:56:32.048Z,2.73
2023-03-11T18:59:00.490Z,2.50
2023-03-11T19:01:28.445Z,2.83
2023-03-11T19:03:57.883Z,3.17
2023-03-11T19:06:27.051Z,3.13
2023-03-11T19:08:55.585Z,3.33
2023-03-11T19:11:24.954Z,3.40
2023-03-11T19:13:54.422Z,2.57
2023-03-11T19:16:25.166Z,3.00
2023-03-11T19:18:55.130Z,3.33
2023-03-11T19:21:23.080Z,3.10
2023-03-11T19:23:52.846Z,3.60
2023-03-11T19:26:23.900Z,3.60
2023-03-11T19:28:57.155Z,3.27
2023-03-11T19:31:24.990Z,3.20
2023-03-11T19:33:52.814Z,3.03
2023-03-11T19:36:20.550Z,3.00
2023-03-11T19:38:48.818Z,2.83
2023-03-11T19:41:19.318Z,3.27
2023-03-11T19:43:48.323Z,3.10
2023-03-11T19:46:18.985Z,3.40
2023-03-11T19:48:46.905Z,3.07
2023-03-11T19:51:15.076Z,3.50
2023-03-11T19:53:42.927Z,4.57
2023-03-11T19:56:11.306Z,7.23
2023-03-11T19:58:39.164Z,9.73
2023-03-11T20:01:06.968Z,8.10
2023-03-11T20:03:36.083Z,6.43
2023-03-11T20:06:05.749Z,11.43
2023-03-11T20:08:36.830Z,4.03
2023-03-11T20:11:06.058Z,3.07
2023-03-11T20:13:34.873Z,3.03
2023-03-11T20:16:10.928Z,3.57
2023-03-11T20:18:40.328Z,3.10
2023-03-11T20:21:10.147Z,3.10
2023-03-11T20:23:38.413Z,3.33
2023-03-11T20:26:07.257Z,3.30
2023-03-11T20:28:35.226Z,3.30
2023-03-11T20:31:09.580Z,3.03
2023-03-11T20:33:38.503Z,3.50
2023-03-11T20:36:09.965Z,7.57
2023-03-11T20:38:37.850Z,3.97
2023-03-11T20:41:08.173Z,4.87
2023-03-11T20:43:36.659Z,5.60
2023-03-11T20:46:05.767Z,3.43
2023-03-11T20:48:33.702Z,3.20
2023-03-11T20:51:02.325Z,2.87
2023-03-11T20:53:32.214Z,2.90
2023-03-11T20:56:01.266Z,3.10
2023-03-11T20:58:29.042Z,3.07
2023-03-11T21:00:56.840Z,3.47
2023-03-11T21:03:24.741Z,3.20
2023-03-11T21:05:52.625Z,3.13
2023-03-11T21:08:20.471Z,3.50
2023-03-11T21:10:52.701Z,3.03
2023-03-11T21:13:20.473Z,2.93
2023-03-11T21:15:48.421Z,3.00
2023-03-11T21:18:16.443Z,2.83
2023-03-11T21:20:44.382Z,3.03
2023-03-11T21:23:12.131Z,2.30
2023-03-11T21:25:42.665Z,2.57
2023-03-11T21:28:13.396Z,2.63
2023-03-11T21:30:41.556Z,2.10
2023-03-11T21:33:09.761Z,1.93
2023-03-11T21:35:37.661Z,2.73
2023-03-11T21:38:05.701Z,2.23
2023-03-11T21:40:33.661Z,2.07
2023-03-11T21:43:01.500Z,3.10
2023-03-11T21:45:30.879Z,2.20
2023-03-11T21:47:59.119Z,2.03
2023-03-11T21:50:26.901Z,2.27
2023-03-11T21:52:54.882Z,2.10
2023-03-11T21:55:22.776Z,2.20
2023-03-11T21:57:50.625Z,1.90
2023-03-11T22:00:19.223Z,2.40
2023-03-11T22:02:48.579Z,2.37
2023-03-11T22:05:16.677Z,2.60
2023-03-11T22:07:44.779Z,2.20
2023-03-11T22:10:12.988Z,2.17
2023-03-11T22:12:41.110Z,2.07
2023-03-11T22:15:10.138Z,2.40
2023-03-11T22:17:38.458Z,2.33
2023-03-11T22:20:10.080Z,2.10
2023-03-11T22:22:38.051Z,1.90
2023-03-11T22:25:06.619Z,2.30
2023-03-11T22:27:34.404Z,2.00
2023-03-11T22:30:02.280Z,1.93
2023-03-11T22:32:30.037Z,1.80
2023-03-11T22:34:57.811Z,2.20
2023-03-11T22:37:26.871Z,1.93
2023-03-11T22:39:54.610Z,2.30
2023-03-11T22:42:22.328Z,2.20
2023-03-11T22:44:50.258Z,2.27
2023-03-11T22:47:17.995Z,1.93
2023-03-11T22:49:45.898Z,1.87
2023-03-11T22:52:13.609Z,2.17
2023-03-11T22:54:42.744Z,1.90
2023-03-11T22:57:10.520Z,2.20
2023-03-11T22:59:38.346Z,2.40
2023-03-11T23:02:06.095Z,2.00
2023-03-11T23:04:33.996Z,2.93
2023-03-11T23:07:01.809Z,1.90
2023-03-11T23:09:29.530Z,2.13
2023-03-11T23:11:58.617Z,2.20
2023-03-11T23:14:37.819Z,2.80
2023-03-11T23:17:11.719Z,2.17
2023-03-11T23:19:39.735Z,2.03
2023-03-11T23:22:07.715Z,2.53
2023-03-11T23:24:35.464Z,2.37
2023-03-11T23:27:05.537Z,1.90
2023-03-11T23:29:33.497Z,2.53
2023-03-11T23:32:01.247Z,2.30
2023-03-11T23:34:28.969Z,2.37
2023-03-11T23:36:56.803Z,2.07
2023-03-11T23:39:24.542Z,2.07
2023-03-11T23:41:52.295Z,1.97
2023-03-11T23:44:21.326Z,2.67
2023-03-11T23:46:49.100Z,2.00
2023-03-11T23:49:16.827Z,2.00
2023-03-11T23:51:44.582Z,1.90
2023-03-11T23:54:12.333Z,1.90
2023-03-11T23:56:40.093Z,1.97
2023-03-11T23:59:07.814Z,2.13
